createdAt,value
2019-02-25T00:01:00.487Z,18.50
2019-02-25T00:03:30.617Z,19.63
2019-02-25T00:06:00.446Z,14.60
2019-02-25T00:08:49.394Z,14.73
2019-02-25T00:11:18.914Z,18.27
2019-02-25T00:13:48.478Z,19.83
2019-02-25T00:16:18.178Z,19.50
2019-02-25T00:18:47.831Z,13.70
2019-02-25T00:21:17.571Z,18.83
2019-02-25T00:23:47.230Z,22.73
2019-02-25T00:26:16.870Z,15.73
2019-02-25T00:28:46.417Z,23.93
2019-02-25T00:31:16.002Z,13.90
2019-02-25T00:33:45.555Z,20.07
2019-02-25T00:36:15.171Z,17.37
2019-02-25T00:38:44.888Z,18.63
2019-02-25T00:41:14.458Z,13.90
2019-02-25T00:43:44.106Z,16.63
2019-02-25T00:46:13.738Z,21.33
2019-02-25T00:48:43.371Z,14.53
2019-02-25T00:51:13.024Z,22.00
2019-02-25T00:53:42.622Z,15.40
2019-02-25T00:56:12.347Z,13.17
2019-02-25T00:58:42.011Z,15.30
2019-02-25T01:01:11.663Z,16.60
2019-02-25T01:03:41.339Z,17.17
2019-02-25T01:06:11.075Z,16.23
2019-02-25T01:08:40.698Z,16.33
2019-02-25T01:11:10.601Z,13.57
2019-02-25T01:13:40.270Z,14.80
2019-02-25T01:16:10.018Z,11.33
2019-02-25T01:18:39.611Z,13.80
2019-02-25T01:21:09.333Z,12.47
2019-02-25T01:23:39.038Z,14.67
2019-02-25T01:26:08.762Z,9.50
2019-02-25T01:28:38.356Z,12.53
2019-02-25T01:31:08.048Z,11.47
2019-02-25T01:33:37.702Z,15.20
2019-02-25T01:36:07.346Z,9.67
2019-02-25T01:38:37.018Z,12.87
2019-02-25T01:41:06.602Z,16.17
2019-02-25T01:43:55.542Z,12.37
2019-02-25T01:46:25.035Z,14.37
2019-02-25T01:48:54.778Z,14.33
2019-02-25T01:51:24.370Z,11.40
2019-02-25T01:53:53.959Z,15.00
2019-02-25T01:56:23.835Z,12.30
2019-02-25T01:58:53.458Z,15.20
2019-02-25T02:01:23.174Z,13.73
2019-02-25T02:03:52.909Z,11.93
2019-02-25T02:06:22.493Z,11.33
2019-02-25T02:08:52.083Z,15.83
2019-02-25T02:11:21.679Z,11.03
2019-02-25T02:13:51.377Z,9.10
2019-02-25T02:16:20.955Z,13.93
2019-02-25T02:18:50.666Z,9.63
2019-02-25T02:21:20.295Z,11.27
2019-02-25T02:23:49.965Z,11.20
2019-02-25T02:26:21.124Z,12.20
2019-02-25T02:28:50.967Z,12.97
2019-02-25T02:31:20.595Z,14.60
2019-02-25T02:33:50.327Z,9.57
2019-02-25T02:36:19.943Z,8.70
2019-02-25T02:38:49.596Z,13.93
2019-02-25T02:41:19.268Z,9.67
2019-02-25T02:43:48.775Z,12.33
2019-02-25T02:46:35.964Z,12.87
2019-02-25T02:49:05.563Z,11.87
2019-02-25T02:51:35.195Z,10.60
2019-02-25T02:54:04.838Z,11.03
2019-02-25T02:56:53.695Z,7.63
2019-02-25T02:59:23.250Z,11.23
2019-02-25T03:01:55.687Z,12.73
2019-02-25T03:04:25.362Z,9.70
2019-02-25T03:06:55.043Z,10.80
2019-02-25T03:09:24.763Z,15.07
2019-02-25T03:11:54.433Z,13.87
2019-02-25T03:14:24.042Z,7.97
2019-02-25T03:16:53.637Z,11.30
2019-02-25T03:19:23.255Z,13.60
2019-02-25T03:21:52.951Z,8.13
2019-02-25T03:24:22.557Z,8.30
2019-02-25T03:26:52.270Z,7.93
2019-02-25T03:29:21.937Z,12.03
2019-02-25T03:31:51.611Z,12.27
2019-02-25T03:34:21.111Z,9.87
2019-02-25T03:36:50.687Z,8.63
2019-02-25T03:39:20.238Z,9.67
2019-02-25T03:41:49.986Z,14.70
2019-02-25T03:44:19.592Z,7.40
2019-02-25T03:46:49.312Z,12.80
2019-02-25T03:49:18.850Z,10.73
2019-02-25T03:51:48.591Z,7.80
2019-02-25T03:54:18.218Z,10.03
2019-02-25T03:56:47.941Z,11.57
2019-02-25T03:59:17.702Z,8.57
2019-02-25T04:01:47.335Z,9.10
2019-02-25T04:04:17.004Z,10.57
2019-02-25T04:06:46.716Z,10.30
2019-02-25T04:09:16.458Z,12.43
2019-02-25T04:11:46.021Z,8.30
2019-02-25T04:14:15.650Z,8.53
2019-02-25T04:16:45.596Z,12.00
2019-02-25T04:19:15.137Z,12.67
2019-02-25T04:21:44.723Z,9.37
2019-02-25T04:24:14.471Z,12.03
2019-02-25T04:26:44.166Z,9.10
2019-02-25T04:29:13.962Z,6.17
2019-02-25T04:31:43.483Z,6.83
2019-02-25T04:34:13.369Z,16.43
2019-02-25T04:36:42.958Z,6.80
2019-02-25T04:39:12.599Z,8.57
2019-02-25T04:41:42.089Z,8.60
2019-02-25T04:44:11.750Z,13.57
2019-02-25T04:46:41.476Z,13.90
2019-02-25T04:49:11.170Z,9.20
2019-02-25T04:51:40.894Z,7.07
2019-02-25T04:54:10.548Z,10.40
2019-02-25T04:56:40.327Z,11.13
2019-02-25T04:59:09.946Z,10.03
2019-02-25T05:01:39.630Z,10.03
2019-02-25T05:04:09.355Z,11.13
2019-02-25T05:06:38.975Z,10.17
2019-02-25T05:09:08.635Z,13.03
2019-02-25T05:11:38.265Z,17.87
2019-02-25T05:14:07.959Z,7.90
2019-02-25T05:16:39.922Z,7.90
2019-02-25T05:19:08.903Z,8.03
2019-02-25T05:21:38.406Z,11.00
2019-02-25T05:24:07.963Z,6.53
2019-02-25T05:26:37.634Z,8.87
2019-02-25T05:29:07.359Z,10.33
2019-02-25T05:31:37.102Z,8.90
2019-02-25T05:34:06.711Z,8.03
2019-02-25T05:36:36.404Z,7.07
2019-02-25T05:39:06.841Z,9.77
2019-02-25T05:41:36.643Z,9.07
2019-02-25T05:44:08.495Z,9.93
2019-02-25T05:46:37.777Z,9.40
2019-02-25T05:49:07.416Z,9.77
2019-02-25T05:51:37.169Z,10.73
2019-02-25T05:54:07.111Z,7.93
2019-02-25T05:56:36.704Z,9.20
2019-02-25T05:59:06.234Z,8.87
2019-02-25T06:01:35.853Z,8.10
2019-02-25T06:04:05.327Z,9.10
2019-02-25T06:06:34.915Z,5.60
2019-02-25T06:09:05.701Z,16.90
2019-02-25T06:11:35.381Z,9.87
2019-02-25T06:14:05.198Z,9.23
2019-02-25T06:16:34.736Z,7.97
2019-02-25T06:19:04.598Z,7.37
2019-02-25T06:21:34.313Z,10.27
2019-02-25T06:24:03.982Z,9.43
2019-02-25T06:26:34.031Z,8.07
2019-02-25T06:29:03.791Z,11.27
2019-02-25T06:31:33.360Z,10.33
2019-02-25T06:34:03.111Z,9.70
2019-02-25T06:36:32.939Z,15.03
2019-02-25T06:39:02.863Z,10.87
2019-02-25T06:41:32.534Z,10.53
2019-02-25T06:44:02.178Z,8.50
2019-02-25T06:46:31.847Z,12.73
2019-02-25T06:49:01.532Z,21.87
2019-02-25T06:51:31.102Z,21.60
2019-02-25T06:54:00.715Z,38.03
2019-02-25T06:56:30.386Z,27.47
2019-02-25T06:59:00.167Z,19.77
2019-02-25T07:01:29.810Z,21.60
2019-02-25T07:04:03.898Z,15.90
2019-02-25T07:06:35.135Z,13.90
2019-02-25T07:09:07.970Z,18.87
2019-02-25T07:11:45.191Z,33.20
2019-02-25T07:14:28.459Z,25.00
2019-02-25T07:16:59.892Z,42.80
2019-02-25T07:19:36.997Z,28.53
2019-02-25T07:22:23.462Z,18.00
2019-02-25T07:24:54.843Z,13.40
2019-02-25T07:27:26.055Z,9.53
2019-02-25T07:30:00.325Z,7.27
2019-02-25T07:32:47.779Z,10.63
2019-02-25T07:35:25.880Z,9.97
2019-02-25T07:38:00.343Z,9.93
2019-02-25T07:40:31.730Z,12.20
2019-02-25T07:43:31.043Z,10.97
2019-02-25T07:46:02.439Z,8.90
2019-02-25T07:48:33.767Z,10.03
2019-02-25T07:51:21.215Z,11.73
2019-02-25T07:54:06.673Z,14.10
2019-02-25T07:56:52.492Z,20.87
2019-02-25T07:59:23.708Z,14.30
2019-02-25T08:01:55.141Z,15.27
2019-02-25T08:04:31.905Z,14.50
2019-02-25T08:07:21.274Z,20.57
2019-02-25T08:14:53.826Z,8.43
2019-02-25T08:17:27.936Z,11.80
2019-02-25T08:20:02.344Z,9.10
2019-02-25T08:22:36.544Z,7.10
2019-02-25T08:25:20.795Z,10.47
2019-02-25T08:27:51.951Z,7.83
2019-02-25T08:30:41.519Z,8.97
2019-02-25T08:33:15.419Z,7.70
2019-02-25T08:36:04.433Z,15.83
2019-02-25T09:21:14.908Z,15.00
2019-02-25T09:26:13.535Z,17.30
2019-02-25T09:28:43.298Z,26.03
2019-02-25T09:31:12.913Z,11.57
2019-02-25T09:58:30.602Z,15.90
2019-02-25T10:03:29.429Z,15.23
2019-02-25T10:15:55.161Z,11.90
2019-02-25T10:18:25.144Z,14.63
2019-02-25T10:20:54.823Z,17.87
2019-02-25T11:05:51.793Z,10.37
2019-02-25T11:08:22.572Z,9.67
2019-02-25T11:11:02.780Z,9.90
2019-02-25T11:13:34.672Z,13.40
2019-02-25T11:16:04.279Z,14.50
2019-02-25T11:18:33.982Z,13.40
2019-02-25T11:21:08.865Z,11.87
2019-02-25T11:23:38.507Z,9.03
2019-02-25T11:26:09.326Z,12.20
2019-02-25T11:28:52.578Z,9.33
2019-02-25T11:31:24.702Z,10.23
2019-02-25T11:33:53.560Z,12.40
2019-02-25T11:36:23.162Z,8.73
2019-02-25T11:39:13.411Z,10.50
2019-02-25T11:41:43.087Z,10.63
2019-02-25T11:44:12.832Z,11.20
2019-02-25T11:46:42.791Z,10.13
2019-02-25T11:49:12.410Z,9.13
2019-02-25T12:06:35.826Z,9.60
2019-02-25T12:09:05.904Z,9.70
2019-02-25T12:24:18.882Z,9.53
2019-02-25T12:56:35.131Z,10.13
2019-02-25T12:59:05.370Z,11.27
2019-02-25T13:01:35.132Z,7.43
2019-02-25T13:04:04.871Z,7.77
2019-02-25T13:06:34.548Z,6.10
2019-02-25T13:09:07.379Z,11.37
2019-02-25T13:21:32.343Z,5.90
2019-02-25T13:24:04.127Z,5.20
2019-02-25T13:26:34.013Z,7.40
2019-02-25T13:29:23.883Z,8.37
2019-02-25T13:31:53.610Z,7.13
2019-02-25T13:34:23.300Z,9.17
2019-02-25T13:36:53.234Z,8.13
2019-02-25T13:39:23.118Z,7.27
2019-02-25T13:41:52.934Z,9.23
2019-02-25T13:44:22.692Z,9.53
2019-02-25T13:46:52.543Z,11.43
2019-02-25T13:49:22.316Z,7.07
2019-02-25T13:51:52.019Z,7.17
2019-02-25T13:54:22.175Z,9.00
2019-02-25T13:56:52.058Z,7.50
2019-02-25T13:59:21.706Z,4.93
2019-02-25T14:01:51.396Z,3.57
2019-02-25T14:04:21.040Z,4.13
2019-02-25T14:06:50.892Z,5.13
2019-02-25T14:09:20.702Z,8.80
2019-02-25T14:11:50.552Z,6.60
2019-02-25T14:14:20.462Z,6.40
2019-02-25T14:16:50.174Z,6.57
2019-02-25T14:19:19.996Z,9.97
2019-02-25T14:21:49.747Z,12.80
2019-02-25T14:24:20.758Z,9.60
2019-02-25T14:26:50.819Z,7.23
2019-02-25T14:29:20.780Z,6.07
2019-02-25T14:31:51.095Z,7.50
2019-02-25T14:34:20.973Z,8.67
2019-02-25T14:36:52.494Z,7.23
2019-02-25T14:39:27.789Z,6.27
2019-02-25T14:41:54.935Z,6.50
2019-02-25T14:44:29.836Z,8.47
2019-02-25T14:46:58.795Z,8.80
2019-02-25T14:49:29.969Z,5.40
2019-02-25T14:51:59.691Z,7.30
2019-02-25T14:54:32.279Z,11.07
2019-02-25T14:57:01.800Z,9.87
2019-02-25T14:59:31.595Z,9.30
2019-02-25T15:02:02.143Z,8.00
2019-02-25T15:04:33.444Z,11.87
2019-02-25T15:07:05.902Z,11.70
2019-02-25T15:09:37.050Z,15.60
2019-02-25T15:12:09.245Z,7.50
2019-02-25T15:14:38.101Z,7.97
2019-02-25T15:17:08.874Z,8.53
2019-02-25T20:22:21.451Z,19.30
2019-02-25T20:34:52.342Z,19.73
2019-02-25T20:37:22.993Z,21.07
2019-02-25T20:39:53.563Z,24.13
2019-02-25T20:42:24.421Z,18.80
2019-02-25T20:44:55.298Z,23.53
2019-02-25T20:47:25.934Z,21.43
2019-02-25T20:49:56.073Z,21.47
2019-02-25T20:52:26.943Z,25.13
2019-02-25T20:54:56.567Z,17.37
2019-02-25T20:57:26.402Z,19.05
2019-02-25T20:59:57.477Z,19.50
2019-02-25T21:02:27.400Z,23.47
2019-02-25T21:04:58.182Z,21.23
2019-02-25T21:07:29.672Z,20.60
2019-02-25T21:10:00.882Z,20.87
2019-02-25T21:12:30.721Z,18.80
2019-02-25T21:15:00.411Z,24.27
2019-02-25T21:17:30.875Z,16.63
2019-02-25T21:20:02.865Z,16.30
2019-02-25T21:22:34.028Z,21.70
2019-02-25T21:25:07.265Z,22.03
2019-02-25T21:27:39.084Z,16.13
2019-02-25T21:30:17.283Z,18.13
2019-02-25T21:32:47.373Z,20.40
2019-02-25T21:35:19.403Z,18.23
2019-02-25T21:37:50.120Z,17.60
2019-02-25T21:40:26.876Z,21.43
2019-02-25T21:42:56.640Z,30.47
2019-02-25T21:45:29.079Z,15.70
2019-02-25T21:47:59.553Z,15.97
2019-02-25T21:50:32.996Z,21.50
2019-02-25T21:53:04.896Z,24.10
2019-02-25T21:55:34.954Z,17.90
2019-02-25T21:58:05.055Z,17.17
2019-02-25T22:00:37.491Z,18.53
2019-02-25T22:03:08.616Z,26.17
2019-02-25T22:05:37.745Z,23.17
2019-02-25T22:08:07.396Z,21.93
2019-02-25T22:10:39.359Z,19.53
2019-02-25T22:13:09.463Z,17.93
2019-02-25T22:15:40.713Z,24.17
2019-02-25T22:18:32.519Z,20.03
2019-02-25T22:21:05.184Z,21.37
2019-02-25T22:23:34.833Z,24.73
2019-02-25T22:26:04.620Z,21.43
2019-02-25T22:28:35.365Z,23.20
2019-02-25T22:31:08.286Z,18.75
2019-02-25T22:33:37.719Z,20.43
2019-02-25T22:36:26.632Z,20.43
2019-02-25T22:38:57.210Z,21.05
2019-02-25T22:41:27.675Z,17.83
